Lake George, New York
Current Conditions -  °F | °C
As of 10:53 AM on Wednesday 28 Jan 2015 (Local Time) from KGFL Reporting Station
Clear Clear  
Wind Chill:   Ceiling: Unl
Heat Index: 13°   Visibility: 7mi
Dew Point:   Wind: 8mph
Humidity: 67%   Direction: 60°ENE
Pressure: 30.13"   Gusts: NA
Location:  43.43°N, 73.72°W
Report Text: KGFL 281553Z AUTO 06007KT 7SM CLR M11/M16 A3013 RMK AO2 SLP217 T11061156
Loading
Personal Weather Stations






























Interactive Weather Map New forecast layout! Learn more

10-Day Weather Forecast

Advertisements
Track Severe Weather on mobile